Time;durP1;ratioP1;P1;durP2;ratioP2;P2;SDS_P1;SDS_P2;PMS_P1;PMS_P2;Temp;Humidity;BMP_temperature;BMP_pressure;BME280_temperature;BME280_humidity;BME280_pressure;Samples;Min_cycle;Max_cycle;Signal;HPM_P1;HPM_P2
2022/09/19 00:00:41;;;;;;;1.23;0.52;;;;;;;11.91;74.74;99938.50;5570753;32;34026;-66
2022/09/19 00:03:46;;;;;;;1.30;0.40;;;;;;;11.72;76.74;99932.72;5570407;32;33905;-66
2022/09/19 00:06:50;;;;;;;1.20;0.57;;;;;;;11.64;78.33;99916.87;5556995;32;34259;-68
2022/09/19 00:09:53;;;;;;;1.30;0.50;;;;;;;11.55;78.89;99925.13;5570678;32;33945;-67
2022/09/19 00:12:55;;;;;;;2.15;0.70;;;;;;;11.28;82.49;99916.81;5570630;32;34690;-68
2022/09/19 00:15:58;;;;;;;1.50;0.70;;;;;;;11.29;82.01;99912.31;5570637;32;33897;-69
2022/09/19 00:19:04;;;;;;;0.95;0.45;;;;;;;11.18;84.17;99915.44;5556783;32;32501;-68
2022/09/19 00:22:09;;;;;;;0.95;0.40;;;;;;;11.04;85.17;99911.75;5570593;32;34630;-67
2022/09/19 00:25:12;;;;;;;1.40;0.60;;;;;;;10.99;85.24;99914.12;5570503;32;34017;-69
2022/09/19 00:28:15;;;;;;;1.12;0.40;;;;;;;10.98;85.72;99904.53;5570256;32;34088;-68
2022/09/19 00:31:20;;;;;;;0.90;0.50;;;;;;;10.98;87.05;99891.28;5556438;32;33237;-68
2022/09/19 00:34:23;;;;;;;0.60;0.50;;;;;;;10.96;86.40;99890.62;5570481;32;34036;-67
2022/09/19 00:37:26;;;;;;;1.05;0.40;;;;;;;10.98;85.89;99887.78;5570297;32;34237;-67
2022/09/19 00:40:29;;;;;;;1.33;0.52;;;;;;;11.15;84.43;99887.41;5570400;32;34674;-66
2022/09/19 00:43:54;;;;;;;1.75;0.40;;;;;;;11.18;81.75;99879.06;5570381;32;34263;-67
2022/09/19 00:47:05;;;;;;;0.62;0.40;;;;;;;11.33;81.72;99871.09;5570199;32;35258;-67
2022/09/19 00:50:21;;;;;;;1.42;0.50;;;;;;;11.32;81.56;99872.13;5570250;32;34679;-66
2022/09/19 00:53:24;;;;;;;1.52;0.60;;;;;;;11.41;80.34;99871.03;5570256;32;35173;-67
2022/09/19 00:56:28;;;;;;;1.90;0.50;;;;;;;11.49;79.19;99860.28;5570334;32;33968;-67
2022/09/19 00:59:35;;;;;;;2.05;0.60;;;;;;;11.53;79.68;99858.91;5556926;32;35245;-66
2022/09/19 01:02:38;;;;;;;0.70;0.40;;;;;;;11.64;76.21;99865.56;5570253;32;34713;-66
2022/09/19 01:06:11;;;;;;;1.27;0.50;;;;;;;11.84;74.29;99876.44;5556540;32;33965;-67
2022/09/19 01:09:36;;;;;;;1.02;0.50;;;;;;;11.89;73.89;99874.88;5570113;32;34808;-67
2022/09/19 01:12:46;;;;;;;2.70;0.50;;;;;;;11.96;72.88;99875.75;5570169;32;34076;-67
2022/09/19 01:15:58;;;;;;;0.77;0.50;;;;;;;11.96;73.02;99870.44;5569227;32;34670;-66
2022/09/19 01:19:15;;;;;;;1.48;0.40;;;;;;;11.99;73.56;99885.19;5570021;32;34707;-67
2022/09/19 01:22:40;;;;;;;0.93;0.52;;;;;;;11.92;74.40;99882.47;5570035;32;34673;-67
2022/09/19 01:26:03;;;;;;;0.80;0.47;;;;;;;11.88;75.42;99888.34;5570016;32;34657;-66
2022/09/19 01:29:18;;;;;;;0.68;0.40;;;;;;;11.86;74.23;99885.88;5569737;32;34787;-67
2022/09/19 01:32:28;;;;;;;0.98;0.40;;;;;;;11.85;75.09;99881.59;5569878;32;33970;-66
2022/09/19 01:35:37;;;;;;;1.77;0.60;;;;;;;11.84;74.71;99873.78;5570280;32;34374;-67
2022/09/19 01:38:43;;;;;;;0.70;0.40;;;;;;;11.83;75.75;99857.00;5570180;32;34122;-66
2022/09/19 01:41:48;;;;;;;0.93;0.50;;;;;;;11.76;75.97;99870.22;5569659;32;34129;-67
2022/09/19 01:44:53;;;;;;;0.95;0.40;;;;;;;11.76;75.34;99870.22;5569832;32;34001;-68
2022/09/19 01:48:32;;;;;;;0.40;0.30;;;;;;;11.74;75.89;99876.75;5569906;32;34706;-66
2022/09/19 01:51:49;;;;;;;0.80;0.50;;;;;;;11.74;76.24;99868.78;5569696;32;34322;-66
2022/09/19 01:55:06;;;;;;;0.57;0.40;;;;;;;11.72;76.35;99884.03;5569891;32;33875;-66
2022/09/19 01:58:25;;;;;;;1.15;0.68;;;;;;;11.69;75.62;99885.25;5569866;32;33957;-69
2022/09/19 02:01:34;;;;;;;0.90;0.50;;;;;;;11.77;72.37;99882.50;5555550;32;32447;-67
2022/09/19 02:04:48;;;;;;;1.58;0.50;;;;;;;11.82;74.34;99881.94;5569600;32;34641;-66
2022/09/19 02:08:04;;;;;;;1.17;0.50;;;;;;;11.78;74.31;99878.00;5569384;32;34712;-66
2022/09/19 02:11:17;;;;;;;0.98;0.40;;;;;;;11.74;75.12;99882.88;5555468;32;32856;-67
2022/09/19 02:14:24;;;;;;;2.45;0.55;;;;;;;11.70;75.69;99888.75;5569623;32;34072;-66
2022/09/19 02:17:33;;;;;;;1.85;0.50;;;;;;;11.70;75.07;99891.41;5569287;32;34793;-67
2022/09/19 02:20:40;;;;;;;1.83;0.60;;;;;;;11.68;75.01;99888.91;5569214;32;34737;-66
2022/09/19 02:23:51;;;;;;;3.33;0.50;;;;;;;11.68;74.79;99886.25;5569118;32;33988;-67
2022/09/19 02:27:08;;;;;;;2.97;0.70;;;;;;;11.71;74.02;99893.84;5570481;32;34122;-66
2022/09/19 02:30:13;;;;;;;1.30;0.57;;;;;;;11.71;74.42;99895.72;5571750;32;34111;-67
2022/09/19 02:33:17;;;;;;;0.95;0.50;;;;;;;11.74;78.25;99892.69;5571442;32;34496;-67
2022/09/19 02:36:34;;;;;;;4.00;0.50;;;;;;;11.73;73.44;99904.31;5571433;32;34140;-67
2022/09/19 02:40:07;;;;;;;1.35;0.60;;;;;;;11.72;74.80;99902.63;5571855;32;34100;-64
2022/09/19 02:43:36;;;;;;;0.93;0.50;;;;;;;11.76;72.30;99907.44;5543753;32;34764;-66
2022/09/19 02:46:47;;;;;;;2.20;0.70;;;;;;;11.86;73.05;99901.00;5571186;32;35426;-67
2022/09/19 02:49:55;;;;;;;2.47;0.57;;;;;;;11.88;71.94;99902.47;5571382;32;34066;-67
2022/09/19 02:53:00;;;;;;;0.80;0.40;;;;;;;11.84;72.34;99889.75;5571681;32;33991;-65
2022/09/19 02:56:03;;;;;;;2.28;0.50;;;;;;;11.90;70.90;99899.63;5571512;32;34708;-67
2022/09/19 02:59:18;;;;;;;1.37;0.60;;;;;;;11.80;71.20;99894.63;5571318;32;34049;-67
2022/09/19 03:02:27;;;;;;;0.98;0.50;;;;;;;11.77;72.11;99879.84;5571657;32;33944;-67
2022/09/19 03:05:32;;;;;;;1.95;0.40;;;;;;;11.59;72.43;99886.56;5571575;32;34556;-68
2022/09/19 03:08:37;;;;;;;2.30;0.45;;;;;;;11.48;74.12;99887.03;5571480;32;34002;-67
2022/09/19 03:11:45;;;;;;;3.42;0.50;;;;;;;11.43;76.82;99892.06;5571373;32;34623;-67
2022/09/19 03:14:55;;;;;;;1.75;0.77;;;;;;;11.21;77.16;99886.69;5571169;32;34017;-67
2022/09/19 03:18:01;;;;;;;2.40;0.60;;;;;;;11.04;79.42;99879.06;5557820;32;34160;-67
2022/09/19 03:21:08;;;;;;;1.00;0.40;;;;;;;10.79;82.59;99881.19;5571159;32;35284;-68
2022/09/19 03:24:11;;;;;;;1.25;0.50;;;;;;;10.71;89.97;99868.81;5571381;32;33940;-68
2022/09/19 03:27:14;;;;;;;1.85;0.60;;;;;;;10.54;90.74;99866.50;5571236;32;34035;-69
2022/09/19 03:30:17;;;;;;;3.95;0.60;;;;;;;10.55;87.14;99857.56;5557355;32;33901;-68
2022/09/19 03:33:23;;;;;;;2.22;0.70;;;;;;;10.61;86.92;99854.97;5570914;32;33936;-68
2022/09/19 03:36:28;;;;;;;1.83;0.60;;;;;;;10.67;86.93;99856.09;5570987;32;33963;-68
2022/09/19 03:39:31;;;;;;;2.05;0.60;;;;;;;10.63;86.58;99857.47;5570650;32;34548;-68
2022/09/19 03:42:36;;;;;;;1.15;0.70;;;;;;;10.70;85.67;99861.03;5557411;32;33937;-68
2022/09/19 03:45:39;;;;;;;2.25;0.65;;;;;;;10.70;84.46;99855.72;5570877;32;34672;-68
2022/09/19 03:48:45;;;;;;;1.00;0.50;;;;;;;10.76;84.68;99861.13;5556507;32;33885;-67
2022/09/19 03:51:49;;;;;;;2.03;0.50;;;;;;;10.68;85.31;99869.19;5570857;32;34692;-67
2022/09/19 03:54:52;;;;;;;1.62;0.52;;;;;;;10.66;85.39;99873.00;5570776;32;34701;-67
2022/09/19 03:57:55;;;;;;;1.75;0.60;;;;;;;10.71;85.41;99876.78;5570726;32;34081;-66
2022/09/19 04:00:58;;;;;;;1.15;0.50;;;;;;;10.70;86.28;99879.59;5556952;32;33096;-67
2022/09/19 04:04:04;;;;;;;1.85;0.60;;;;;;;10.80;85.22;99890.78;5570973;32;34677;-66
2022/09/19 04:07:07;;;;;;;1.75;0.70;;;;;;;10.86;85.11;99901.50;5570966;32;34305;-67
2022/09/19 04:10:15;;;;;;;2.08;0.80;;;;;;;10.92;86.48;99897.31;5570643;32;34071;-68
2022/09/19 04:13:21;;;;;;;1.75;0.70;;;;;;;10.87;88.67;99900.50;5570594;32;33982;-67
2022/09/19 04:16:25;;;;;;;1.87;0.80;;;;;;;10.71;91.67;99902.47;5570675;32;34653;-68
2022/09/19 04:19:29;;;;;;;3.87;1.05;;;;;;;10.46;95.06;99908.00;5556339;32;33535;-68
2022/09/19 04:22:37;;;;;;;3.90;0.85;;;;;;;10.32;96.85;99903.47;5556323;32;32528;-67
2022/09/19 04:25:40;;;;;;;2.75;0.75;;;;;;;10.23;97.52;99904.53;5570462;32;33964;-68
2022/09/19 04:28:43;;;;;;;2.45;0.90;;;;;;;10.18;98.93;99901.59;5570442;32;33905;-68
2022/09/19 04:31:46;;;;;;;2.75;0.70;;;;;;;10.23;98.16;99904.53;5570402;32;34148;-66
2022/09/19 04:34:49;;;;;;;3.03;0.70;;;;;;;10.21;97.60;99908.38;5570155;32;34084;-67
2022/09/19 04:37:52;;;;;;;2.75;0.70;;;;;;;10.27;97.53;99891.75;5570429;32;34036;-66
2022/09/19 04:40:57;;;;;;;1.55;0.70;;;;;;;10.34;96.83;99901.47;5556630;32;32690;-66
2022/09/19 04:44:01;;;;;;;1.00;0.65;;;;;;;10.35;95.64;99903.13;5556698;32;35292;-66
2022/09/19 04:47:06;;;;;;;1.92;0.80;;;;;;;10.37;95.57;99906.41;5556133;32;33623;-65
2022/09/19 04:50:09;;;;;;;1.52;0.70;;;;;;;10.38;95.60;99912.53;5555514;32;34744;-67
2022/09/19 04:53:16;;;;;;;2.55;1.00;;;;;;;10.48;94.48;99901.69;5570208;32;34607;-66
2022/09/19 04:56:20;;;;;;;1.48;0.73;;;;;;;10.52;95.24;99900.31;5570041;32;34719;-67
2022/09/19 04:59:24;;;;;;;2.15;0.80;;;;;;;10.59;99.05;99906.59;5570136;32;34103;-67
2022/09/19 05:02:29;;;;;;;1.35;0.80;;;;;;;10.59;96.10;99899.44;5570320;32;34620;-67
2022/09/19 05:05:33;;;;;;;2.17;0.90;;;;;;;10.67;94.36;99904.66;5556013;32;32306;-66
2022/09/19 05:08:36;;;;;;;1.58;0.75;;;;;;;10.72;97.49;99901.47;5570069;32;34643;-66
2022/09/19 05:11:42;;;;;;;1.52;0.88;;;;;;;10.73;96.32;99917.22;5570378;32;34388;-67
2022/09/19 05:14:46;;;;;;;3.87;1.17;;;;;;;10.76;95.57;99908.06;5569898;32;34138;-67
2022/09/19 05:17:52;;;;;;;3.85;0.80;;;;;;;10.76;97.01;99911.53;5570044;32;33873;-67
2022/09/19 05:21:06;;;;;;;2.05;0.90;;;;;;;10.67;97.82;99925.91;5568985;32;34136;-66
2022/09/19 05:24:09;;;;;;;1.52;0.90;;;;;;;10.53;98.13;99929.34;5556176;32;34001;-67
2022/09/19 05:27:12;;;;;;;2.00;0.80;;;;;;;10.41;98.85;99941.34;5569635;31;34615;-69
2022/09/19 05:30:15;;;;;;;3.70;0.80;;;;;;;10.26;100.00;99935.97;5569724;32;34368;-68
2022/09/19 05:33:26;;;;;;;2.90;0.82;;;;;;;10.17;100.00;99941.53;5569540;32;34032;-67
2022/09/19 05:36:31;;;;;;;3.50;1.00;;;;;;;10.06;100.00;99948.03;5569763;32;34387;-70
2022/09/19 05:39:34;;;;;;;2.25;1.10;;;;;;;10.03;100.00;99943.91;5569835;32;33991;-69
2022/09/19 05:42:42;;;;;;;2.25;0.82;;;;;;;9.90;100.00;99950.78;5569284;32;33857;-68
2022/09/19 05:45:46;;;;;;;2.40;0.90;;;;;;;9.72;100.00;99945.72;5555281;32;34041;-69
2022/09/19 05:48:49;;;;;;;2.72;0.90;;;;;;;9.65;100.00;99946.56;5569677;32;34488;-69
2022/09/19 05:51:55;;;;;;;2.40;0.77;;;;;;;9.56;100.00;99956.37;5568851;32;34067;-68
2022/09/19 05:54:58;;;;;;;4.37;1.25;;;;;;;9.64;100.00;99953.69;5569322;32;34687;-68
2022/09/19 05:58:01;;;;;;;2.08;0.80;;;;;;;9.53;100.00;99962.03;5569043;32;34719;-69
2022/09/19 06:01:06;;;;;;;2.28;0.65;;;;;;;9.54;100.00;99958.38;5568899;32;34675;-68
2022/09/19 06:04:09;;;;;;;1.85;0.60;;;;;;;9.50;100.00;99965.84;5569099;32;34634;-69
2022/09/19 06:07:12;;;;;;;2.97;0.80;;;;;;;9.51;100.00;99966.66;5555132;32;32552;-68
2022/09/19 06:10:16;;;;;;;2.20;0.73;;;;;;;9.44;100.00;99971.81;5569121;32;34601;-68
2022/09/19 06:13:23;;;;;;;2.03;0.75;;;;;;;9.34;100.00;99984.44;5569326;32;33924;-68
2022/09/19 06:16:26;;;;;;;1.65;0.80;;;;;;;9.37;100.00;99985.91;5569036;32;33919;-70
2022/09/19 06:19:29;;;;;;;1.87;0.77;;;;;;;9.27;100.00;99987.91;5555602;32;34272;-68
2022/09/19 06:22:33;;;;;;;1.62;0.90;;;;;;;9.16;100.00;99975.84;5568501;32;34288;-69
2022/09/19 06:25:38;;;;;;;3.00;0.80;;;;;;;9.15;100.00;99975.03;5554674;32;33096;-69
2022/09/19 06:28:41;;;;;;;1.60;0.90;;;;;;;9.19;100.00;99969.41;5568802;32;34201;-68
2022/09/19 06:31:44;;;;;;;1.58;0.75;;;;;;;9.18;100.00;99973.88;5569021;32;34002;-69
2022/09/19 06:34:49;;;;;;;2.55;0.77;;;;;;;9.23;100.00;99971.56;5568463;32;33876;-68
2022/09/19 06:38:03;;;;;;;1.90;0.82;;;;;;;9.16;100.00;99976.69;5568436;32;34045;-69
2022/09/19 06:41:08;;;;;;;2.28;0.60;;;;;;;9.19;100.00;99985.28;5568561;32;33966;-69
2022/09/19 06:44:12;;;;;;;1.58;0.68;;;;;;;9.19;100.00;99980.00;5568671;32;33925;-71
2022/09/19 06:47:24;;;;;;;1.12;0.65;;;;;;;9.06;100.00;99983.16;5568750;32;34233;-70
2022/09/19 06:50:28;;;;;;;2.72;0.60;;;;;;;9.05;100.00;99986.81;5568556;32;34699;-71
2022/09/19 06:53:31;;;;;;;1.27;0.75;;;;;;;9.00;100.00;99991.78;5568429;32;34132;-72
2022/09/19 06:56:34;;;;;;;1.23;0.57;;;;;;;9.09;100.00;99993.41;5553976;32;33355;-69
2022/09/19 06:59:38;;;;;;;2.00;0.65;;;;;;;9.11;100.00;99989.59;5568350;32;34275;-72
2022/09/19 07:02:41;;;;;;;1.65;0.80;;;;;;;9.07;100.00;99998.03;5541631;32;32887;-69
2022/09/19 07:05:45;;;;;;;3.60;1.00;;;;;;;9.03;100.00;99994.91;5568041;32;33968;-69
2022/09/19 07:08:48;;;;;;;1.87;0.80;;;;;;;8.96;100.00;100007.13;5568130;32;34437;-70
2022/09/19 07:11:56;;;;;;;1.35;0.70;;;;;;;9.00;100.00;100007.66;5555023;32;34644;-68
2022/09/19 07:15:01;;;;;;;2.03;0.60;;;;;;;8.99;100.00;99998.88;5570988;32;33906;-68
2022/09/19 07:18:08;;;;;;;1.02;0.60;;;;;;;8.94;100.00;100014.44;5557184;32;32745;-68
2022/09/19 07:21:11;;;;;;;0.93;0.60;;;;;;;9.15;100.00;100011.25;5571180;32;33887;-69
2022/09/19 07:24:14;;;;;;;1.75;0.77;;;;;;;9.14;100.00;100012.25;5570685;32;34108;-69
2022/09/19 07:27:17;;;;;;;1.23;0.55;;;;;;;9.24;100.00;100012.91;5571214;32;34840;-68
2022/09/19 07:30:22;;;;;;;1.35;0.70;;;;;;;9.33;100.00;100016.37;5570831;32;34000;-68
2022/09/19 07:33:30;;;;;;;1.10;0.60;;;;;;;9.43;100.00;100007.25;5571185;32;33999;-68
2022/09/19 07:36:33;;;;;;;1.75;0.50;;;;;;;9.72;100.00;100005.81;5556734;32;34037;-68
2022/09/19 07:39:37;;;;;;;1.90;0.60;;;;;;;10.05;100.00;100007.34;5556707;32;32433;-68
2022/09/19 07:43:02;;;;;;;1.10;0.50;;;;;;;10.56;100.00;100010.34;5570919;32;34001;-67
2022/09/19 07:46:05;;;;;;;1.55;0.50;;;;;;;11.62;100.00;100011.88;5556598;32;33740;-68
2022/09/19 07:49:08;;;;;;;1.37;0.40;;;;;;;12.70;91.03;100011.94;5570691;32;34252;-67
2022/09/19 07:52:16;;;;;;;0.30;0.30;;;;;;;13.45;86.40;100006.03;5556896;32;33272;-66
2022/09/19 07:55:20;;;;;;;1.55;0.60;;;;;;;14.26;85.41;100009.69;5570802;32;35461;-68
2022/09/19 07:58:24;;;;;;;1.02;0.40;;;;;;;15.13;78.54;100015.81;5569971;32;34202;-69
2022/09/19 08:01:28;;;;;;;1.35;0.40;;;;;;;14.26;80.35;100012.38;5569891;32;34230;-66
2022/09/19 08:04:33;;;;;;;0.65;0.40;;;;;;;13.48;87.15;100017.13;5569940;32;33950;-67
2022/09/19 08:07:35;;;;;;;2.17;0.60;;;;;;;13.29;81.26;100025.81;5556426;32;33766;-67
2022/09/19 08:10:42;;;;;;;4.20;0.57;;;;;;;13.95;83.04;100026.19;5556008;32;32588;-68
2022/09/19 08:13:50;;;;;;;0.50;0.30;;;;;;;14.01;78.47;100019.25;5570177;32;33984;-67
2022/09/19 08:16:56;;;;;;;1.12;0.43;;;;;;;13.56;79.15;100018.78;5542824;32;33071;-68
2022/09/19 08:20:02;;;;;;;2.35;0.50;;;;;;;13.52;81.56;100022.88;5555855;32;32658;-68
2022/09/19 08:23:16;;;;;;;1.27;0.50;;;;;;;13.17;82.79;100035.31;5569937;32;33975;-66
2022/09/19 08:26:18;;;;;;;0.60;0.40;;;;;;;12.33;84.07;100036.13;5555486;32;34831;-65
2022/09/19 08:29:21;;;;;;;0.77;0.40;;;;;;;12.57;82.90;100041.94;5570219;32;34435;-65
2022/09/19 08:32:26;;;;;;;0.95;0.40;;;;;;;13.42;80.68;100047.19;5570463;32;34127;-66
2022/09/19 08:35:37;;;;;;;1.85;0.50;;;;;;;14.84;70.74;100066.97;5570468;32;34037;-68
2022/09/19 08:38:41;;;;;;;1.55;0.50;;;;;;;15.75;62.33;100051.97;5570165;32;33995;-67
2022/09/19 08:42:00;;;;;;;0.57;0.40;;;;;;;16.84;59.84;100065.34;5570226;32;34048;-67
2022/09/19 08:45:16;;;;;;;0.82;0.30;;;;;;;15.95;63.41;100067.97;5557002;32;33990;-66
2022/09/19 08:48:38;;;;;;;1.27;0.50;;;;;;;16.56;60.95;100067.50;5556560;32;34002;-66
2022/09/19 08:51:47;;;;;;;1.55;0.37;;;;;;;14.39;65.76;100065.81;5570536;32;34027;-67
2022/09/19 08:54:52;;;;;;;0.70;0.50;;;;;;;13.67;68.18;100073.41;5570299;32;34704;-66
2022/09/19 08:57:59;;;;;;;0.40;0.40;;;;;;;13.66;69.06;100074.41;5569813;32;34348;-65
2022/09/19 09:01:06;;;;;;;4.35;0.60;;;;;;;13.42;69.90;100081.84;5569722;32;33884;-66
2022/09/19 09:04:15;;;;;;;2.58;1.55;;;;;;;13.17;74.02;100082.47;5569861;32;33997;-67
2022/09/19 09:07:53;;;;;;;2.47;0.40;;;;;;;13.25;70.65;100091.16;5569731;32;34157;-66
2022/09/19 09:11:30;;;;;;;2.67;0.60;;;;;;;12.65;72.46;100088.88;5543822;32;33979;-67
2022/09/19 09:15:11;;;;;;;1.75;0.40;;;;;;;12.68;72.06;100080.53;5563357;32;34046;-67
2022/09/19 09:18:46;;;;;;;0.80;0.47;;;;;;;12.73;70.83;100087.94;5569088;32;34558;-67
2022/09/19 09:22:16;;;;;;;0.93;0.35;;;;;;;12.56;68.63;100092.66;5542255;32;33168;-68
2022/09/19 09:25:29;;;;;;;1.02;0.40;;;;;;;12.45;70.90;100091.31;5568938;32;34719;-66
2022/09/19 09:28:38;;;;;;;2.75;0.43;;;;;;;13.06;71.14;100089.94;5568394;32;35907;-66
2022/09/19 09:31:48;;;;;;;1.37;0.40;;;;;;;13.19;68.50;100094.56;5554827;32;32866;-68
2022/09/19 09:35:02;;;;;;;1.95;0.50;;;;;;;12.76;68.87;100108.84;5569144;32;34067;-67
2022/09/19 09:38:28;;;;;;;2.37;0.50;;;;;;;12.74;67.21;100114.34;5569118;32;34171;-66
2022/09/19 09:41:52;;;;;;;1.45;0.50;;;;;;;12.69;69.48;100118.59;5569070;32;34075;-67
2022/09/19 09:45:16;;;;;;;2.25;0.60;;;;;;;12.57;68.33;100118.28;5568501;32;34191;-69
2022/09/19 09:48:28;;;;;;;1.58;0.40;;;;;;;12.71;67.11;100113.91;5568680;32;34166;-67
2022/09/19 09:51:51;;;;;;;0.60;0.37;;;;;;;12.53;68.36;100114.34;5569099;32;33974;-68
2022/09/19 09:58:46;;;;;;;3.25;0.70;;;;;;;12.35;69.89;100112.06;5569078;32;33952;-68
2022/09/19 10:05:36;;;;;;;1.33;0.50;;;;;;;13.01;66.36;100107.47;5569120;32;34195;-66
2022/09/19 10:09:01;;;;;;;1.52;0.60;;;;;;;12.94;66.49;100106.59;5543227;32;34156;-67
2022/09/19 10:12:22;;;;;;;2.10;0.50;;;;;;;12.72;68.64;100100.44;5554668;32;34340;-66
2022/09/19 10:15:50;;;;;;;0.80;0.45;;;;;;;12.35;70.56;100098.75;5554482;32;32724;-67
2022/09/19 10:19:00;;;;;;;1.77;0.65;;;;;;;12.09;71.72;100107.22;5554697;32;33282;-66
2022/09/19 10:22:07;;;;;;;1.20;0.45;;;;;;;12.24;71.91;100119.69;5542218;32;32453;-66
2022/09/19 10:25:15;;;;;;;3.30;0.70;;;;;;;11.97;80.33;100115.84;5569321;32;34303;-65
2022/09/19 10:28:27;;;;;;;1.85;0.50;;;;;;;11.89;80.81;100110.63;5554795;32;33181;-65
2022/09/19 10:31:57;;;;;;;1.42;0.40;;;;;;;12.47;82.99;100115.06;5555787;32;32357;-67
2022/09/19 10:35:26;;;;;;;1.75;0.50;;;;;;;13.05;75.87;100124.72;5568883;32;34021;-67
2022/09/19 10:38:29;;;;;;;1.48;0.45;;;;;;;13.10;75.72;100119.66;5568653;32;34259;-66
2022/09/19 10:41:35;;;;;;;0.90;0.40;;;;;;;13.33;71.05;100124.81;5568968;32;34735;-65
2022/09/19 10:44:38;;;;;;;0.95;0.50;;;;;;;12.99;74.67;100123.66;5568394;32;34015;-65
2022/09/19 10:47:41;;;;;;;2.47;0.55;;;;;;;13.78;73.77;100120.88;5555319;32;34287;-65
2022/09/19 10:50:49;;;;;;;1.12;0.60;;;;;;;14.12;68.86;100106.72;5570101;32;33882;-66
2022/09/19 10:53:56;;;;;;;1.48;0.40;;;;;;;13.74;70.49;100116.94;5557005;32;34657;-66
2022/09/19 10:56:59;;;;;;;1.25;0.47;;;;;;;13.13;71.70;100116.62;5570536;32;33984;-66
2022/09/19 11:00:04;;;;;;;0.55;0.32;;;;;;;13.38;71.64;100104.56;5556070;32;32768;-66
2022/09/19 11:03:30;;;;;;;1.90;0.40;;;;;;;13.69;71.14;100112.19;5543878;32;33193;-65
2022/09/19 11:06:33;;;;;;;1.08;0.40;;;;;;;13.85;69.05;100095.88;5570429;32;34520;-66
2022/09/19 11:09:37;;;;;;;1.05;0.47;;;;;;;13.00;70.64;100096.00;5556473;32;34276;-65
2022/09/19 11:12:42;;;;;;;1.33;0.60;;;;;;;12.58;72.71;100107.44;5570230;32;33966;-65
2022/09/19 11:15:58;;;;;;;0.80;0.43;;;;;;;12.40;80.58;100122.13;5570742;32;34037;-64
2022/09/19 11:19:38;;;;;;;1.37;0.40;;;;;;;11.87;86.54;100136.53;5570603;32;33890;-64
2022/09/19 11:23:05;;;;;;;0.70;0.40;;;;;;;11.59;89.10;100144.25;5570652;32;33436;-65
2022/09/19 11:26:24;;;;;;;0.60;0.37;;;;;;;11.33;92.03;100149.94;5570098;32;34177;-65
2022/09/19 11:29:49;;;;;;;1.65;0.60;;;;;;;11.29;94.51;100149.50;5569936;32;34031;-66
2022/09/19 11:32:56;;;;;;;1.15;0.50;;;;;;;11.47;96.19;100154.50;5570472;32;35220;-65
2022/09/19 11:36:19;;;;;;;0.80;0.60;;;;;;;11.34;94.60;100151.59;5570208;32;34714;-67
2022/09/19 11:39:38;;;;;;;0.62;0.40;;;;;;;11.39;94.77;100156.38;5557302;32;34325;-67
2022/09/19 11:43:12;;;;;;;0.77;0.30;;;;;;;11.47;92.52;100157.16;5556549;32;34840;-66
2022/09/19 11:46:43;;;;;;;0.50;0.40;;;;;;;12.19;87.35;100154.81;5570778;32;33947;-67
2022/09/19 11:49:52;;;;;;;0.95;0.45;;;;;;;12.58;85.31;100173.16;5556862;32;33096;-66
2022/09/19 11:53:30;;;;;;;0.75;0.40;;;;;;;11.65;88.14;100154.19;5571011;32;34446;-67
2022/09/19 11:57:05;;;;;;;0.55;0.40;;;;;;;11.84;84.82;100171.47;5570623;32;33949;-66
2022/09/19 12:00:17;;;;;;;0.80;0.40;;;;;;;11.50;87.23;100164.78;5563852;32;34650;-66
2022/09/19 12:03:30;;;;;;;6.00;0.77;;;;;;;11.10;89.39;100149.13;5570643;32;34475;-66
2022/09/19 12:07:06;;;;;;;0.88;0.50;;;;;;;11.10;88.55;100157.94;5556767;32;32689;-66
2022/09/19 12:10:24;;;;;;;3.65;0.40;;;;;;;11.17;90.31;100158.06;5569663;32;34568;-66
2022/09/19 12:13:42;;;;;;;0.50;0.40;;;;;;;11.50;86.37;100166.59;5570070;32;34538;-65
2022/09/19 12:16:52;;;;;;;1.52;0.35;;;;;;;11.52;84.25;100172.56;5555873;32;34373;-65
2022/09/19 12:19:58;;;;;;;;;;;;;;;11.62;83.71;100183.75;5555942;32;32766;-66
2022/09/19 12:26:42;;;;;;;1.05;0.30;;;;;;;11.45;82.00;100179.59;5556027;32;32733;-66
2022/09/19 12:30:13;;;;;;;0.77;0.30;;;;;;;11.42;83.33;100174.62;5554650;32;33853;-65
2022/09/19 12:33:36;;;;;;;1.48;0.50;;;;;;;11.54;82.30;100184.66;5556048;32;34348;-67
2022/09/19 12:36:55;;;;;;;3.92;0.50;;;;;;;11.39;85.33;100180.28;5555396;32;33460;-66
2022/09/19 12:40:03;;;;;;;2.12;0.47;;;;;;;11.45;84.80;100179.59;5569823;32;33974;-66
2022/09/19 12:43:20;;;;;;;1.70;0.40;;;;;;;11.19;86.41;100180.75;5569526;32;34592;-66
2022/09/19 12:46:45;;;;;;;0.75;0.40;;;;;;;11.59;83.76;100174.31;5555833;32;34274;-66
2022/09/19 12:50:13;;;;;;;3.83;0.47;;;;;;;12.25;82.10;100175.34;5569324;32;34255;-64
2022/09/19 12:53:24;;;;;;;1.30;0.40;;;;;;;13.38;74.05;100184.50;5555429;32;32910;-64
2022/09/19 12:56:40;;;;;;;0.93;0.40;;;;;;;13.27;72.99;100184.16;5555357;32;32812;-64
2022/09/19 12:59:47;;;;;;;0.62;0.40;;;;;;;12.64;77.18;100185.69;5569158;32;34671;-65
2022/09/19 13:02:53;;;;;;;1.23;0.40;;;;;;;15.67;62.24;100171.72;5569260;32;33848;-67
2022/09/19 13:06:12;;;;;;;0.50;0.30;;;;;;;16.25;61.62;100173.50;5555466;32;34002;-67
2022/09/19 13:09:27;;;;;;;1.05;0.40;;;;;;;14.91;64.08;100161.25;5569034;32;34740;-68
2022/09/19 13:12:57;;;;;;;0.52;0.30;;;;;;;14.95;63.16;100167.88;5567750;32;34767;-65
2022/09/19 13:16:13;;;;;;;0.73;0.35;;;;;;;14.28;66.26;100159.75;5569127;32;33983;-67
2022/09/19 13:26:16;;;;;;;0.28;0.25;;;;;;;22.38;42.60;100150.00;5555569;32;33764;-68
2022/09/19 13:29:18;;;;;;;0.62;0.22;;;;;;;21.07;42.81;100148.66;5554107;32;34858;-67
2022/09/19 13:32:38;;;;;;;0.40;0.28;;;;;;;23.86;37.39;100153.19;5555056;32;34768;-68
2022/09/19 13:35:49;;;;;;;;;;;;;;;20.36;45.00;100156.16;5569193;32;33919;-68
2022/09/19 13:38:58;;;;;;;0.95;0.30;;;;;;;21.29;41.42;100154.22;5554930;32;33833;-68
2022/09/19 13:42:01;;;;;;;3.70;0.47;;;;;;;23.03;39.65;100165.41;5568558;32;34506;-67
2022/09/19 13:45:22;;;;;;;1.60;1.05;;;;;;;24.79;34.51;100163.19;5568613;32;34123;-68
2022/09/19 13:48:39;;;;;;;1.75;0.30;;;;;;;26.93;31.52;100160.09;5568431;32;33873;-68
2022/09/19 13:51:44;;;;;;;4.65;0.35;;;;;;;25.70;31.71;100162.59;5568545;32;34806;-67
2022/09/19 13:54:50;;;;;;;1.20;0.40;;;;;;;22.16;38.51;100158.09;5568462;32;34469;-68
2022/09/19 13:58:31;;;;;;;1.10;0.45;;;;;;;18.73;45.89;100160.41;5568026;32;34001;-68
2022/09/19 14:01:36;;;;;;;0.82;0.30;;;;;;;16.44;55.01;100151.22;5568200;32;34201;-67
2022/09/19 14:04:52;;;;;;;0.90;0.47;;;;;;;15.03;60.89;100157.00;5554330;32;33876;-67
2022/09/19 14:07:59;;;;;;;0.77;0.40;;;;;;;14.67;63.02;100154.63;5568412;32;34010;-67
2022/09/19 14:11:32;;;;;;;1.33;0.55;;;;;;;13.61;66.30;100162.13;5553527;32;34119;-66
2022/09/19 14:14:38;;;;;;;1.77;0.30;;;;;;;13.71;66.89;100166.13;5567833;32;34626;-65
2022/09/19 14:18:20;;;;;;;2.92;0.60;;;;;;;13.56;65.50;100159.22;5567709;32;34199;-67
2022/09/19 14:21:25;;;;;;;1.62;0.40;;;;;;;13.37;66.74;100169.53;5554256;32;32942;-65
2022/09/19 14:24:37;;;;;;;1.37;0.37;;;;;;;13.44;68.17;100186.41;5574537;32;35263;-67
2022/09/19 14:27:42;;;;;;;0.80;0.50;;;;;;;12.92;70.36;100191.16;5574123;32;34235;-66
2022/09/19 14:31:05;;;;;;;0.80;0.60;;;;;;;12.45;76.75;100194.25;5574376;32;34706;-68
2022/09/19 14:34:26;;;;;;;0.90;0.30;;;;;;;11.47;88.54;100181.06;5574176;32;34115;-68
2022/09/19 14:37:53;;;;;;;0.40;0.40;;;;;;;11.20;91.09;100163.00;5574005;32;34631;-68
2022/09/19 14:41:08;;;;;;;0.90;0.40;;;;;;;11.63;90.12;100164.97;5560286;32;32651;-67
2022/09/19 14:44:36;;;;;;;0.40;0.40;;;;;;;12.15;87.61;100154.34;5559816;32;34010;-68
2022/09/19 14:47:43;;;;;;;1.85;0.50;;;;;;;12.57;85.83;100164.34;5574027;32;35150;-67
2022/09/19 14:50:51;;;;;;;0.62;0.50;;;;;;;12.66;82.58;100145.59;5574077;32;34984;-67
2022/09/19 14:54:04;;;;;;;2.10;0.80;;;;;;;12.28;85.15;100144.91;5573840;32;34042;-67
2022/09/19 14:57:16;;;;;;;1.67;0.60;;;;;;;12.14;86.24;100146.56;5559621;32;33651;-66
2022/09/19 15:00:27;;;;;;;2.22;0.70;;;;;;;12.35;88.76;100159.09;5572548;32;34205;-67
2022/09/19 15:03:45;;;;;;;1.30;0.60;;;;;;;12.51;86.89;100159.75;5559414;32;34635;-67
2022/09/19 15:06:52;;;;;;;0.70;0.50;;;;;;;12.99;84.56;100158.25;5559882;32;32567;-66
2022/09/19 15:09:55;;;;;;;0.93;0.60;;;;;;;13.08;81.72;100153.63;5559698;32;33499;-66